Flight Track Log - Related Links

Times and Time Zones

All times are in EDT time to prevent confusion due to time zone crossing. See the SWA2336 flight status page for this flight to view local times or setup timezone preferences in your user account.

Time Position Orientation Groundspeed Altitude Reporting Facility
EDT Latitude Longitude Course Direction KTS MPH feet Rate Location/Type
Sat 07:15:11 AM 43.1014 -77.6942 194° South 142 163 1,500  Level Cleveland Center
Sat 07:16:18 AM 43.0519 -77.7108 194° South 198 228 3,800 2,321 Climbing Cleveland Center
Sat 07:16:57 AM 43.0125 -77.7183 188° South 241 277 5,600 2,848 Climbing Cleveland Center
Sat 07:17:57 AM 42.9464 -77.7383 192° South 246 283 8,500 2,600 Climbing Cleveland Center
Sat 07:18:57 AM 42.8736 -77.7558 190° South 246 283 10,800 2,300 Climbing Cleveland Center
Sat 07:19:57 AM 42.7936 -77.8019 203° Southwest 275 316 13,100 2,550 Climbing Cleveland Center
Sat 07:20:57 AM 42.7072 -77.8481 201° Southwest 309 356 15,900 3,250 Climbing Cleveland Center
Sat 07:21:57 AM 42.6186 -77.8997 203° Southwest 337 388 19,600 3,550 Climbing Cleveland Center
Sat 07:22:57 AM 42.5467 -77.9394 202° Southwest 331 381 23,000 2,850 Climbing Cleveland Center
Sat 07:23:57 AM 42.4664 -77.9850 203° Southwest 326 375 25,300 2,000 Climbing Cleveland Center
Sat 07:24:57 AM 42.3800 -78.0336 203° Southwest 332 382 27,000 850 Climbing Cleveland Center
Sat 07:25:57 AM 42.2933 -78.0792 201° Southwest 332 382 27,000  Level Cleveland Center
Sat 07:26:57 AM 42.2069 -78.1275 203° Southwest 332 382 27,000 250 Level Cleveland Center
Sat 07:27:57 AM 42.1203 -78.1756 202° Southwest 332 382 27,500 1,150 Climbing Cleveland Center
Sat 07:28:57 AM 42.0214 -78.2269 201° Southwest 340 391 29,300 2,050 Climbing Cleveland Center
Sat 07:29:57 AM 41.9347 -78.2747 202° Southwest 345 397 31,600 1,950 Climbing Cleveland Center
Sat 07:30:57 AM 41.8461 -78.3225 202° Southwest 345 397 33,200 1,350 Climbing Cleveland Center
Sat 07:31:57 AM 41.7614 -78.3700 203° Southwest 345 397 34,300 1,000 Climbing Cleveland Center
Sat 07:32:57 AM 41.6728 -78.4147 201° Southwest 345 397 35,200 1,100 Climbing Cleveland Center
Sat 07:33:57 AM 41.5819 -78.4650 202° Southwest 350 403 36,500 1,150 Climbing Cleveland Center
Sat 07:34:57 AM 41.4911 -78.5125 201° Southwest 350 403 37,500 650 Climbing Cleveland Center
Sat 07:35:57 AM 41.4003 -78.5625 202° Southwest 350 403 37,800 250 Climbing Cleveland Center
Sat 07:36:57 AM 41.3072 -78.6122 202° Southwest 350 403 38,000 100 Climbing Cleveland Center
Sat 07:37:57 AM 41.2122 -78.6619 201° Southwest 350 403 38,000  Level Cleveland Center
Sat 07:38:57 AM 41.1192 -78.7144 203° Southwest 355 409 38,000  Level Cleveland Center
Sat 07:39:57 AM 41.0261 -78.7611 201° Southwest 361 415 38,000  Level Cleveland Center
Sat 07:40:57 AM 40.9311 -78.8106 201° Southwest 367 422 38,000  Level Cleveland Center
Sat 07:41:57 AM 40.8586 -78.8481 201° Southwest 367 422 38,000  Level Cleveland Center
Sat 07:42:57 AM 40.7533 -78.9056 202° Southwest 367 422 38,000  Level Cleveland Center
Sat 07:43:57 AM 40.6642 -78.9517 201° Southwest 367 422 38,000  Level Cleveland Center
Sat 07:44:57 AM 40.5608 -79.0033 201° Southwest 362 417 38,000  Level Cleveland Center
Sat 07:45:57 AM 40.4697 -79.0519 202° Southwest 362 417 38,000  Level Cleveland Center
Sat 07:46:57 AM 40.3786 -79.0978 201° Southwest 362 417 38,000  Level Cleveland Center
Sat 07:47:57 AM 40.2894 -79.1433 201° Southwest 352 405 38,000  Level Cleveland Center
Sat 07:48:57 AM 40.1983 -79.1914 202° Southwest 352 405 38,000  Level Cleveland Center
Sat 07:49:57 AM 40.1072 -79.2367 201° Southwest 352 405 38,000  Level Cleveland Center
Sat 07:50:57 AM 40.0306 -79.2789 203° Southwest 347 399 38,000  Level Cleveland Center
Sat 07:51:57 AM 39.9394 -79.3267 202° Southwest 347 399 38,000  Level Cleveland Center
Sat 07:52:51 AM 39.8503 -79.3725 202° Southwest 346 398 38,000  Level Washington Center
Sat 07:53:51 AM 39.7594 -79.4164 200° South 346 398 38,000  Level Washington Center
Sat 07:54:51 AM 39.6703 -79.4628 202° Southwest 346 398 38,000  Level Washington Center
Sat 07:55:51 AM 39.5772 -79.5092 201° Southwest 351 404 38,000  Level Washington Center
Sat 07:56:51 AM 39.4900 -79.5556 202° Southwest 351 404 38,000  Level Washington Center
Sat 07:57:51 AM 39.3969 -79.5986 200° South 356 410 38,000  Level Washington Center
Sat 07:58:51 AM 39.3036 -79.6472 202° Southwest 356 410 38,000  Level Washington Center
Sat 07:59:51 AM 39.2103 -79.6928 201° Southwest 356 410 38,000  Level Washington Center
Sat 08:00:51 AM 39.1192 -79.7414 202° Southwest 356 410 38,000  Level Washington Center
Sat 08:01:51 AM 39.0256 -79.7894 202° Southwest 356 410 38,000  Level Washington Center
Sat 08:02:51 AM 38.9344 -79.8350 201° Southwest 362 417 38,000  Level Washington Center
Sat 08:03:51 AM 38.8411 -79.8828 202° Southwest 362 417 38,000  Level Washington Center
Sat 08:04:51 AM 38.7497 -79.9253 200° South 362 417 38,000  Level Washington Center
Sat 08:05:51 AM 38.6650 -79.9656 200° South 356 410 38,000  Level Washington Center
Sat 08:06:51 AM 38.5736 -80.0108 201° Southwest 356 410 38,000  Level Washington Center
Sat 08:07:51 AM 38.4822 -80.0556 201° Southwest 356 410 38,000  Level Washington Center
Sat 08:08:51 AM 38.3931 -80.0981 200° South 356 410 38,000  Level Washington Center
Sat 08:09:51 AM 38.2933 -80.1475 201° Southwest 356 410 38,000  Level Washington Center
Sat 08:10:51 AM 38.2019 -80.1894 200° South 356 410 38,000  Level Washington Center
Sat 08:11:51 AM 38.1125 -80.2342 201° Southwest 356 410 38,000  Level Washington Center
Sat 08:12:51 AM 38.0297 -80.2739 201° Southwest 356 410 38,000  Level Washington Center
Sat 08:13:51 AM 37.9403 -80.3183 201° Southwest 356 410 38,000  Level Washington Center
Sat 08:16:05 AM 37.7311 -80.4161 200° South 357 411 38,000  Level Atlanta Center
Sat 08:17:05 AM 37.6406 -80.4569 200° South 351 404 38,000  Level Atlanta Center
Sat 08:18:05 AM 37.5500 -80.4978 200° South 346 398 38,000  Level Atlanta Center
Sat 08:19:05 AM 37.4617 -80.5408 201° Southwest 346 398 38,000  Level Atlanta Center
Sat 08:20:05 AM 37.3814 -80.5758 199° South 346 398 38,000  Level Atlanta Center
Sat 08:21:05 AM 37.2908 -80.6189 201° Southwest 346 398 38,000  Level Atlanta Center
Sat 08:22:05 AM 37.2003 -80.6594 200° South 346 398 38,000  Level Atlanta Center
Sat 08:23:05 AM 37.1119 -80.7047 202° Southwest 346 398 38,000  Level Atlanta Center
Sat 08:24:05 AM 37.0061 -80.7222 188° South 346 398 38,000  Level Atlanta Center
Sat 08:25:05 AM 36.9064 -80.7342 185° South 353 406 38,000  Level Atlanta Center
Sat 08:26:05 AM 36.8064 -80.7436 184° South 353 406 38,000  Level Atlanta Center
Sat 08:27:05 AM 36.7192 -80.7525 185° South 358 412 38,000  Level Atlanta Center
Sat 08:28:05 AM 36.6089 -80.7647 185° South 363 418 38,000  Level Atlanta Center
Sat 08:29:05 AM 36.5092 -80.7739 184° South 368 423 38,000  Level Atlanta Center
Sat 08:30:05 AM 36.4072 -80.7858 185° South 368 423 38,000  Level Atlanta Center
Sat 08:31:05 AM 36.3056 -80.8003 187° South 368 423 38,000  Level Atlanta Center
Sat 08:32:05 AM 36.2078 -80.8119 185° South 363 418 38,000  Level Atlanta Center
Sat 08:33:05 AM 36.1100 -80.8208 184° South 363 418 38,000  Level Atlanta Center
Sat 08:34:05 AM 36.0100 -80.8300 184° South 368 423 38,000  Level Atlanta Center
Sat 08:35:05 AM 35.9103 -80.8417 185° South 368 423 38,000  Level Atlanta Center
Sat 08:36:05 AM 35.8208 -80.8503 184° South 368 423 38,000  Level Atlanta Center
Sat 08:37:05 AM 35.7231 -80.8592 184° South 368 423 38,000  Level Atlanta Center
Sat 08:38:05 AM 35.6253 -80.8681 184° South 368 423 38,000  Level Atlanta Center
Sat 08:39:05 AM 35.5253 -80.8822 187° South 368 423 38,000  Level Atlanta Center
Sat 08:40:05 AM 35.4192 -80.8914 184° South 363 418 38,000  Level Atlanta Center
Sat 08:41:05 AM 35.3214 -80.9028 185° South 363 418 38,000  Level Atlanta Center
Sat 08:42:05 AM 35.2258 -80.9142 186° South 363 418 38,000  Level Atlanta Center
Sat 08:43:05 AM 35.1278 -80.9228 184° South 363 418 38,000  Level Atlanta Center
Sat 08:44:05 AM 35.0322 -80.9339 185° South 358 412 38,000  Level Atlanta Center
Sat 08:45:05 AM 34.9344 -80.9453 185° South 352 405 38,000  Level Atlanta Center
Sat 08:46:05 AM 34.8469 -80.9536 184° South 352 405 38,000  Level Atlanta Center
Sat 08:48:31 AM 34.5919 -80.9833 185° South 361 415 38,000  Level Jacksonville Center
Sat 08:49:31 AM 34.4897 -80.9906 183° South 372 428 38,000  Level Jacksonville Center
Sat 08:50:31 AM 34.3878 -81.0031 186° South 372 428 38,000  Level Jacksonville Center
Sat 08:51:31 AM 34.2897 -81.0125 185° South 360 414 38,000  Level Jacksonville Center
Sat 08:52:31 AM 34.2022 -81.0219 185° South 349 402 38,000  Level Jacksonville Center
Sat 08:53:31 AM 34.0919 -81.0319 184° South 354 407 38,000  Level Jacksonville Center
Sat 08:54:31 AM 33.9939 -81.0392 183° South 359 413 38,000  Level Jacksonville Center
Sat 08:55:31 AM 33.8939 -81.0511 186° South 364 419 38,000  Level Jacksonville Center
Sat 08:56:31 AM 33.8025 -81.0831 196° South 364 419 38,000  Level Jacksonville Center
Sat 08:57:31 AM 33.7217 -81.1247 203° Southwest 353 406 38,000  Level Jacksonville Center
Sat 08:58:31 AM 33.6328 -81.1689 202° Southwest 353 406 38,000  Level Jacksonville Center
Sat 08:59:31 AM 33.5414 -81.2156 203° Southwest 353 406 38,000  Level Jacksonville Center
Sat 09:00:31 AM 33.4522 -81.2594 202° Southwest 353 406 38,000  Level Jacksonville Center
Sat 09:01:31 AM 33.3611 -81.3033 202° Southwest 353 406 38,000  Level Jacksonville Center
Sat 09:02:31 AM 33.2697 -81.3447 201° Southwest 353 406 38,000  Level Jacksonville Center
Sat 09:03:31 AM 33.1806 -81.3911 204° Southwest 353 406 38,000  Level Jacksonville Center
Sat 09:04:31 AM 33.0914 -81.4347 202° Southwest 353 406 38,000  Level Jacksonville Center
Sat 09:05:31 AM 32.9978 -81.4783 201° Southwest 358 412 38,000  Level Jacksonville Center
Sat 09:06:31 AM 32.9086 -81.5217 202° Southwest 358 412 38,000  Level Jacksonville Center
Sat 09:07:31 AM 32.8172 -81.5653 202° Southwest 358 412 38,000  Level Jacksonville Center
Sat 09:08:31 AM 32.7278 -81.6083 202° Southwest 358 412 38,000  Level Jacksonville Center
Sat 09:09:31 AM 32.6386 -81.6542 203° Southwest 352 405 38,000  Level Jacksonville Center
Sat 09:10:31 AM 32.5389 -81.7000 201° Southwest 352 405 38,000  Level Jacksonville Center
Sat 09:11:31 AM 32.4472 -81.7453 203° Southwest 352 405 38,000  Level Jacksonville Center
Sat 09:12:31 AM 32.3642 -81.7833 201° Southwest 357 411 38,000  Level Jacksonville Center
Sat 09:13:31 AM 32.2622 -81.8311 202° Southwest 357 411 38,000  Level Jacksonville Center
Sat 09:14:31 AM 32.1811 -81.8714 203° Southwest 357 411 38,000  Level Jacksonville Center
Sat 09:15:31 AM 32.0792 -81.9192 202° Southwest 357 411 38,000  Level Jacksonville Center
Sat 09:16:31 AM 31.9856 -81.9642 202° Southwest 357 411 38,000  Level Jacksonville Center
Sat 09:17:32 AM 31.9025 -81.9944 197° South 357 411 38,000  Level Jacksonville Center
Sat 09:18:32 AM 31.7878 -82.0128 188° South 369 425 38,000  Level Jacksonville Center
Sat 09:19:31 AM 31.6856 -82.0308 189° South 369 425 38,000  Level Jacksonville Center
Sat 09:20:32 AM 31.5833 -82.0464 187° South 369 425 38,000  Level Jacksonville Center
Sat 09:21:31 AM 31.4831 -82.0642 189° South 369 425 38,000  Level Jacksonville Center
Sat 09:22:31 AM 31.3789 -82.0797 187° South 375 432 38,000  Level Jacksonville Center
Sat 09:23:32 AM 31.2808 -82.0953 188° South 370 426 38,000  Level Jacksonville Center
Sat 09:24:31 AM 31.1767 -82.1106 187° South 370 426 38,000  Level Jacksonville Center
Sat 09:25:31 AM 31.0744 -82.1286 189° South 370 426 38,000  Level Jacksonville Center
Sat 09:26:31 AM 30.9722 -82.1439 187° South 370 426 38,000  Level Jacksonville Center
Sat 09:27:31 AM 30.8761 -82.1592 188° South 370 426 38,000  Level Jacksonville Center
Sat 09:28:31 AM 30.7719 -82.1744 187° South 370 426 38,000  Level Jacksonville Center
Sat 09:29:31 AM 30.6675 -82.1922 188° South 375 432 38,000 -50 Level Jacksonville Center
Sat 09:30:31 AM 30.5611 -82.2097 188° South 381 438 37,900  Descending Jacksonville Center
Sat 09:31:31 AM 30.4589 -82.2203 185° South 381 438 38,000 50 Climbing Jacksonville Center
Sat 09:32:31 AM 30.3483 -82.2356 187° South 391 450 38,000  Level Jacksonville Center
Sat 09:33:32 AM 30.2400 -82.2556 189° South 391 450 38,000 -200 Level Jacksonville Center
Sat 09:34:31 AM 30.1292 -82.2731 188° South 396 456 37,600 -1,400 Descending Jacksonville Center
Sat 09:35:32 AM 30.0208 -82.2881 187° South 396 456 35,200 -2,300 Descending Jacksonville Center
Sat 09:36:31 AM 29.9122 -82.3103 190° South 396 456 33,000 -2,168 Descending Jacksonville Center
Sat 09:37:31 AM 29.7997 -82.3278 188° South 403 464 30,900 -2,083 Descending Jacksonville Center
Sat 09:38:32 AM 29.6892 -82.3428 187° South 410 472 28,800 -2,000 Descending Jacksonville Center
Sat 09:39:31 AM 29.5806 -82.3578 187° South 405 466 26,900 -1,462 Descending Jacksonville Center
Sat 09:40:31 AM 29.4761 -82.3464 175° South 393 452 25,900 -893 Descending Jacksonville Center
Sat 09:41:32 AM 29.3697 -82.3350 175° South 387 445 25,100 -1,200 Descending Jacksonville Center
Sat 09:42:31 AM 29.2589 -82.3214 174° South 387 445 23,500 -1,866 Descending Jacksonville Center
Sat 09:43:31 AM 29.1525 -82.3078 174° South 387 445 21,400 -2,033 Descending Jacksonville Center
Sat 09:44:32 AM 29.0522 -82.2964 174° South 381 438 19,400 -1,900 Descending Jacksonville Center
Sat 09:45:31 AM 28.9561 -82.2850 174° South 363 418 17,600 -1,966 Descending Jacksonville Center
Sat 09:46:31 AM 28.8517 -82.2739 175° South 353 406 15,500 -2,083 Descending Jacksonville Center
Sat 09:47:32 AM 28.7597 -82.2625 174° South 342 394 13,400 -1,250 Descending Jacksonville Center
Sat 09:48:31 AM 28.6681 -82.2583 178° South 336 387 13,000 -353 Descending Jacksonville Center
Sat 09:49:48 AM 28.5500 -82.2500 176° South 328 377 12,600 -832 Descending Tampa TRACON
Sat 09:50:48 AM 28.4667 -82.2500 180° South 329 379 11,100 -850 Descending Tampa TRACON
Sat 09:51:48 AM 28.3667 -82.2500 180° South 320 368 10,900 -700 Descending Tampa TRACON
Sat 09:52:48 AM 28.3167 -82.3000 221° Southwest 268 308 9,700 -950 Descending Tampa TRACON
Sat 09:53:48 AM 28.2500 -82.3500 213° Southwest 260 299 9,000 -550 Descending Tampa TRACON
Sat 09:54:48 AM 28.2000 -82.4000 221° Southwest 246 283 8,600 -950 Descending Tampa TRACON
Sat 09:55:48 AM 28.1333 -82.4167 192° South 254 292 7,100 -1,488 Descending Tampa TRACON
Sat 09:56:49 AM 28.0667 -82.4167 180° South 255 293 5,600 -1,041 Descending Tampa TRACON
Sat 09:57:49 AM 27.9833 -82.4167 180° South 251 289 5,000 -300 Descending Tampa TRACON
Sat 09:58:49 AM 27.9167 -82.4167 180° South 254 292 5,000 -400 Level Tampa TRACON
Sat 09:59:49 AM 27.8500 -82.4167 180° South 251 289 4,200 -947 Descending Tampa TRACON
Sat 10:00:43 AM 27.8000 -82.4500 211° Southwest 223 257 3,200 -800 Descending Tampa TRACON
Sat 10:01:49 AM 27.7833 -82.5167 254° West 182 209 2,600 -250 Descending Tampa TRACON
Sat 10:02:43 AM 27.8167 -82.5333 336° Northwest 166 191 2,700  Climbing Tampa TRACON
Sat 10:03:49 AM 27.8500 -82.5500 336° Northwest 146 168 2,600 -571 Descending Tampa TRACON
Sat 10:04:49 AM 27.9000 -82.5500 360° North 133 153 1,500 -950 Descending Tampa TRACON
Sat 10:05:49 AM 27.9333 -82.5500 360° North 124 143 700 -800 Descending Tampa TRACON
Sat 10:07:00 AM 27.9667 -82.5167 350° North  Level FlightAware Approximate
Sat 10:14:00 AM 27.9755 -82.5332 350° North  Level Estimated
Sat 10:15:00 AM 27.9755 -82.5332 350° North  Level Estimated
Sat 10:16:00 AM 27.9755 -82.5332 350° North  Level Estimated

Login

Don't have an account? Register now (free) for customized features, flight alerts, and more!